Chuuk International Airport

Airport
ICAO code: 
PTKK
IATA Code: 
TKK
Summary
ICAO Region: 
APAC
Location: 
Weno, Chuuk
Serving: 
Chuuk
Elevation: 
11 ft
Coordinates: 
Aerial View: 
7° 27' 42.984" N, 151° 50' 35.016" E
Metar
Observation
PTKK 280253Z 06006KT 15SM FEW014 SCT120 OVC280 30/25 A2971 RMK SLP062 8/171 T02990253 57025
Station
Weno Island, Chuuk Int. Airp.
Date/Time
2021-11-28 02:53:00
Wind direction
60°
Wind speed
06 kts
Lowest cloud amount
few clouds
Temperature
29.9°C
Dew point
25.3°C
Humidity
76%
Weather condition
n/a

Chuuk International Airport is an airport located on Weno (formerly Moen), the main island of the State of Chuuk (formerly Truk) in the Federated States of Micronesia.

Climatology

Tropical Savanna climate (Köppen climate classification Aw)

Runways

Designator Length Width Surface Rops
4/22 1831 46 ASP Yes/Yes
Airport map: 
Aerial View: 

Accidents and Serious Incidents at or in the vicinity of PTKK

SKYbrary Partners:

Safety knowledge contributed by: